• Join FlightAware (Why Join?)
  • Login
  • US Flag 
05:37PM EST


 

Airport Tracker/Info


-or-


 

Live Flight TrackerFlight Track Log ✈ WBR2634 ✈ 16-Jul-2013 ✈ KBRL - KORD

Flight Track Log - Related Links

Times and Time Zones

All times are in EDT time to prevent confusion due to time zone crossing. See the WBR2634 flight status page for this flight to view local times or setup timezone preferences in your user account.

Time Position Orientation Groundspeed Altitude Reporting Facility
EDT Latitude Longitude Course Direction KTS MPH feet Rate Location/Type
05:29PM 40.7517 -91.0839 64° Northeast 74 85 2,200  Level Chicago Center
05:30PM 40.7639 -91.0444 68° East 111 128 3,100 720 Climbing Chicago Center
05:31PM 40.8547 -90.7905 57° Northeast  Level FlightAware Approximate
05:31PM 40.7792 -91.0056 63° Northeast 114 131 3,700  Level Chicago Center
05:32PM 40.8756 -90.7396 72° East  Level Estimated
05:32PM 40.7939 -90.9617 66° East 126 145 4,600  Level Chicago Center
05:33PM 40.8964 -90.6887 65° Northeast  Level Estimated
05:33PM 40.8108 -90.9200 62° Northeast 129 148 5,400  Level Chicago Center
05:34PM 40.9157 -90.6368 64° Northeast  Level FlightAware Approximate
05:34PM 40.8297 -90.8697 64° Northeast 127 146 6,400  Level Chicago Center
05:35PM 40.9350 -90.5848 64° Northeast  Level FlightAware Approximate
05:35PM 40.8444 -90.8272 65° Northeast 128 147 7,100  Level Chicago Center
05:36PM 40.8522 -90.7800 78° East 131 151 7,800 660 Climbing Chicago Center
05:37PM 40.8619 -90.7308 75° East 137 158 8,500 540 Climbing Chicago Center
05:39PM 40.8739 -90.6803 73° East 143 165 9,000 240 Climbing Chicago Center
05:40PM 40.8961 -90.6289 60° Northeast 158 182 9,000  Level Chicago Center
05:41PM 40.9250 -90.5631 60° Northeast 170 196 9,100  Climbing Chicago Center
05:42PM 40.9378 -90.5069 73° East 161 185 9,000 120 Descending Chicago Center
05:43PM 40.9572 -90.4547 64° Northeast 159 183 9,400 360 Climbing Chicago Center
05:44PM 40.9733 -90.4042 67° East 152 175 9,800 360 Climbing Chicago Center
05:45PM 40.9883 -90.3558 68° East 145 167 10,200 120 Climbing Chicago Center
05:46PM 41.0050 -90.2994 69° East 161 185 10,100 -60 Descending Chicago Center
05:47PM 41.0289 -90.2314 65° Northeast 168 193 10,100  Level Chicago Center
05:48PM 41.0500 -90.1744 64° Northeast 170 196 10,100  Level Chicago Center
05:49PM 41.0744 -90.1214 59° Northeast 169 194 10,100  Level Chicago Center
05:50PM 41.0950 -90.0650 64° Northeast 169 194 10,100 -60 Level Chicago Center
05:51PM 41.1158 -90.0086 64° Northeast 169 194 10,000  Descending Chicago Center
05:52PM 41.1361 -89.9528 64° Northeast 167 192 10,100  Climbing Chicago Center
05:53PM 41.1561 -89.8989 64° Northeast 164 189 10,100  Level Chicago Center
05:54PM 41.1800 -89.8331 64° Northeast 164 189 10,100  Level Chicago Center
05:55PM 41.2000 -89.7781 64° Northeast 165 190 10,100  Level Chicago Center
05:56PM 41.2203 -89.7214 65° Northeast 169 194 10,100  Level Chicago Center
05:57PM 41.2406 -89.6664 64° Northeast 168 193 10,100  Level Chicago Center
05:58PM 41.2611 -89.6108 64° Northeast 168 193 10,100  Level Chicago Center
05:59PM 41.2814 -89.5558 64° Northeast 167 192 10,100 -60 Level Chicago Center
06:00PM 41.3003 -89.5000 66° East 166 191 10,000  Descending Chicago Center
06:01PM 41.3247 -89.4372 63° Northeast 162 186 10,100  Climbing Chicago Center
06:02PM 41.3444 -89.3811 65° Northeast 165 190 10,000 -60 Descending Chicago Center
06:03PM 41.3639 -89.3269 64° Northeast 163 188 10,000  Level Chicago Center
06:04PM 41.3825 -89.2722 66° East 162 186 10,000 -180 Level Chicago Center
06:05PM 41.4014 -89.2128 67° East 168 193 9,700 -360 Descending Chicago Center
06:06PM 41.4253 -89.1458 65° Northeast 168 193 9,300 -360 Descending Chicago Center
06:07PM 41.4456 -89.0906 64° Northeast 168 193 9,000 -360 Descending Chicago Center
06:09PM 41.4650 -89.0369 64° Northeast 164 189 8,600 -420 Descending Chicago Center
06:10PM 41.4858 -88.9792 64° Northeast 170 196 8,200 -300 Descending Chicago Center
06:11PM 41.5039 -88.9236 67° East 166 191 8,000 -120 Descending Chicago Center
06:12PM 41.5236 -88.8717 63° Northeast 159 183 8,000  Level Chicago Center
06:13PM 41.5450 -88.8097 65° Northeast 154 177 8,000  Level Chicago Center
06:14PM 41.5636 -88.7586 64° Northeast 153 176 8,000  Level Chicago Center
06:15PM 41.5811 -88.7089 65° Northeast 150 173 8,000  Level Chicago Center
06:16PM 41.5989 -88.6561 66° East 156 180 8,100  Climbing Chicago Center
06:17PM 41.6183 -88.6064 62° Northeast 153 176 8,000  Descending Chicago Center
06:18PM 41.6472 -88.5517 55° Northeast 151 174 8,100  Climbing Chicago Center
06:19PM 41.6694 -88.5039 58° Northeast 151 174 8,100 -120 Level Chicago Center
06:20PM 41.6822 -88.4522 72° East 147 169 7,900 -360 Descending Chicago Center
06:21PM 41.6800 -88.3917 93° East 162 186 7,400 -480 Descending Chicago Center
06:22PM 41.7086 -88.3458 50° Northeast 158 182 7,000 -120 Descending Chicago Center
06:24PM 41.7653 -88.2467 53° Northeast 150 173 7,100  Climbing Chicago Center
06:25PM 41.7919 -88.2025 51° Northeast 152 175 7,000  Descending Chicago Center
06:26PM 41.8178 -88.1572 53° Northeast 153 176 7,100  Climbing Chicago Center
06:27PM 41.8378 -88.1081 61° Northeast 152 175 7,000 -60 Descending Chicago Center
06:28PM 41.8506 -88.0550 72° East 150 173 7,000  Level Chicago Center
06:29PM 41.8706 -87.9925 67° East 152 175 7,100  Climbing Chicago Center
06:30PM 41.8833 -87.9333 74° East 158 182 7,000 -60 Descending Chicago TRACON
06:31PM 41.8833 -87.8667 90° East 160 184 7,000 -240 Level Chicago TRACON
06:32PM 41.8956 -87.8222 70° East 155 178 6,500 -660 Descending Chicago Center
06:33PM 41.9028 -87.7617 81° East 162 186 5,700 -900 Descending Chicago Center
06:34PM 41.9272 -87.7017 61° Northeast 175 201 4,700 -960 Descending Chicago Center
06:35PM 41.9628 -87.7336 326° Northwest 170 196 3,800 -1,260 Descending Chicago Center
06:36PM 41.9706 -87.7925 280° West 166 191 2,200 -1,260 Descending Chicago Center
06:38PM 41.9700 -87.8497 269° West 160 184 1,200 -960 Descending Chicago Center
06:39PM 41.9667 -87.9000 323° Northwest  Level FlightAware Approximate
06:46PM 41.9817 -87.9067 323° Northwest  Level Estimated